Time;durP1;ratioP1;P1;durP2;ratioP2;P2;SDS_P1;SDS_P2;PMS_P1;PMS_P2;Temp;Humidity;BMP_temperature;BMP_pressure;BME280_temperature;BME280_humidity;BME280_pressure;Samples;Min_cycle;Max_cycle;Signal;HPM_P1;HPM_P2
2023/02/25 00:01:43;;;;;;;;;14.00;11.50;;;;;;;;119942;1190;25061;-66
2023/02/25 00:04:30;;;;;;;;;27.67;13.00;;;;;;;;119966;1190;25554;-65
2023/02/25 00:06:58;;;;;;;;;13.00;11.33;;;;;;;;120104;1190;24762;-66
2023/02/25 00:09:27;;;;;;;;;13.33;11.67;;;;;;;;120107;1190;25266;-65
2023/02/25 00:11:56;;;;;;;;;10.00;10.00;;;;;;;;119942;1183;25210;-66
2023/02/25 00:14:24;;;;;;;;;13.00;13.00;;;;;;;;120104;1180;25293;-66
2023/02/25 00:16:54;;;;;;;;;12.33;10.67;;;;;;;;119914;1190;24848;-65
2023/02/25 00:19:24;;;;;;;;;16.75;14.50;;;;;;;;119894;1182;24796;-66
2023/02/25 00:21:52;;;;;;;;;10.50;7.75;;;;;;;;119879;1190;24725;-66
2023/02/25 00:24:21;;;;;;;;;11.75;11.00;;;;;;;;119928;1190;25400;-66
2023/02/25 00:26:49;;;;;;;;;13.67;11.00;;;;;;;;119904;1190;25456;-66
2023/02/25 00:29:17;;;;;;;;;11.50;10.25;;;;;;;;119912;1190;24923;-65
2023/02/25 00:31:46;;;;;;;;;12.00;10.00;;;;;;;;119926;1182;25198;-66
2023/02/25 00:34:14;;;;;;;;;13.00;11.33;;;;;;;;119972;1190;25534;-65
2023/02/25 00:36:42;;;;;;;;;13.00;10.75;;;;;;;;120086;1190;24907;-66
2023/02/25 00:39:11;;;;;;;;;16.50;12.50;;;;;;;;120111;1190;24883;-66
2023/02/25 00:41:39;;;;;;;;;15.75;12.00;;;;;;;;119954;1190;26052;-66
2023/02/25 00:44:07;;;;;;;;;17.67;11.67;;;;;;;;120111;1190;25016;-66
2023/02/25 00:46:35;;;;;;;;;15.00;13.00;;;;;;;;120101;1189;25520;-66
2023/02/25 00:49:04;;;;;;;;;15.25;12.25;;;;;;;;119966;1182;25128;-66
2023/02/25 00:51:33;;;;;;;;;13.75;11.50;;;;;;;;120108;1190;25230;-65
2023/02/25 00:54:01;;;;;;;;;11.00;8.50;;;;;;;;119944;1182;25224;-65
2023/02/25 00:56:29;;;;;;;;;13.67;11.67;;;;;;;;120100;1190;25293;-65
2023/02/25 00:58:58;;;;;;;;;12.67;12.00;;;;;;;;120119;1190;25063;-65
2023/02/25 01:01:30;;;;;;;;;10.00;10.00;;;;;;;;120100;1190;25663;-65
2023/02/25 01:03:59;;;;;;;;;14.25;11.25;;;;;;;;119945;1182;25325;-65
2023/02/25 01:06:28;;;;;;;;;12.00;10.33;;;;;;;;119924;1190;25322;-65
2023/02/25 01:08:58;;;;;;;;;10.75;10.75;;;;;;;;119891;1190;25182;-65
2023/02/25 01:11:32;;;;;;;;;9.50;8.50;;;;;;;;119884;1183;25147;-65
2023/02/25 01:14:05;;;;;;;;;11.25;9.00;;;;;;;;119906;1190;25639;-65
2023/02/25 01:16:34;;;;;;;;;6.25;5.75;;;;;;;;119872;1190;25118;-66
2023/02/25 01:19:08;;;;;;;;;12.25;9.75;;;;;;;;119916;1182;24818;-65
2023/02/25 01:21:40;;;;;;;;;14.50;11.75;;;;;;;;119923;1190;25390;-66
2023/02/25 01:24:16;;;;;;;;;8.50;7.75;;;;;;;;119933;1190;24687;-65
2023/02/25 01:26:45;;;;;;;;;12.50;10.00;;;;;;;;119727;1190;25576;-65
2023/02/25 01:29:16;;;;;;;;;9.67;9.00;;;;;;;;119724;1190;25064;-65
2023/02/25 01:31:45;;;;;;;;;8.25;7.25;;;;;;;;119917;1182;24930;-65
2023/02/25 01:34:16;;;;;;;;;10.00;9.00;;;;;;;;119906;1190;25424;-65
2023/02/25 01:36:45;;;;;;;;;13.00;9.25;;;;;;;;119907;1190;24700;-65
2023/02/25 01:39:15;;;;;;;;;6.00;6.00;;;;;;;;119715;1190;25387;-65
2023/02/25 01:41:49;;;;;;;;;16.50;9.50;;;;;;;;119914;1190;25323;-65
2023/02/25 01:44:19;;;;;;;;;11.25;8.75;;;;;;;;119940;1190;25316;-65
2023/02/25 01:46:49;;;;;;;;;12.50;8.75;;;;;;;;120228;1182;25403;-65
2023/02/25 01:49:27;;;;;;;;;7.75;7.50;;;;;;;;119947;1176;24786;-65
2023/02/25 01:52:20;;;;;;;;;12.00;9.00;;;;;;;;120124;1190;25793;-65
2023/02/25 01:54:52;;;;;;;;;9.25;9.25;;;;;;;;119938;1190;25466;-65
2023/02/25 01:57:21;;;;;;;;;9.25;9.25;;;;;;;;119947;1190;25455;-65
2023/02/25 01:59:51;;;;;;;;;10.75;9.25;;;;;;;;119922;1190;25730;-65
2023/02/25 02:02:20;;;;;;;;;12.00;8.50;;;;;;;;120102;1181;25092;-66
2023/02/25 02:04:51;;;;;;;;;16.00;11.25;;;;;;;;119942;1182;25471;-65
2023/02/25 02:07:21;;;;;;;;;13.67;10.00;;;;;;;;120096;1190;25026;-65
2023/02/25 02:09:55;;;;;;;;;12.75;12.00;;;;;;;;119941;1190;25198;-65
2023/02/25 02:12:50;;;;;;;;;14.75;11.00;;;;;;;;120109;1190;25081;-65
2023/02/25 02:15:18;;;;;;;;;9.25;7.75;;;;;;;;119933;1190;25550;-65
2023/02/25 02:17:59;;;;;;;;;11.25;11.25;;;;;;;;119917;1190;25592;-65
2023/02/25 02:20:56;;;;;;;;;10.67;10.67;;;;;;;;119915;1182;25347;-65
2023/02/25 02:23:34;;;;;;;;;13.00;10.67;;;;;;;;119887;1190;25621;-65
2023/02/25 02:26:02;;;;;;;;;10.75;9.50;;;;;;;;119918;1190;25145;-65
2023/02/25 02:29:04;;;;;;;;;9.00;9.00;;;;;;;;119909;1190;24923;-65
2023/02/25 02:31:38;;;;;;;;;10.25;9.50;;;;;;;;119747;1185;25157;-65
2023/02/25 02:34:36;;;;;;;;;13.75;10.50;;;;;;;;119902;1190;25542;-65
2023/02/25 02:37:28;;;;;;;;;10.75;8.25;;;;;;;;119920;1190;25439;-65
2023/02/25 02:39:57;;;;;;;;;12.00;12.00;;;;;;;;119885;1190;25631;-66
2023/02/25 02:42:32;;;;;;;;;8.67;8.33;;;;;;;;119927;1181;25004;-65
2023/02/25 02:45:11;;;;;;;;;10.50;8.50;;;;;;;;119924;1190;25124;-65
2023/02/25 02:47:42;;;;;;;;;13.25;9.75;;;;;;;;119896;1190;25287;-65
2023/02/25 02:50:20;;;;;;;;;10.00;9.00;;;;;;;;119874;1190;24911;-66
2023/02/25 02:52:51;;;;;;;;;11.50;10.00;;;;;;;;119972;1190;25407;-65
2023/02/25 02:55:23;;;;;;;;;12.00;9.50;;;;;;;;119941;1190;25421;-66
2023/02/25 02:57:57;;;;;;;;;11.25;10.00;;;;;;;;120110;1190;24758;-65
2023/02/25 03:00:29;;;;;;;;;15.75;12.75;;;;;;;;120092;1187;25067;-65
2023/02/25 03:03:03;;;;;;;;;11.67;11.33;;;;;;;;119955;1182;25766;-65
2023/02/25 03:05:33;;;;;;;;;11.00;9.25;;;;;;;;119902;1190;25452;-65
2023/02/25 03:08:09;;;;;;;;;12.67;11.67;;;;;;;;119901;1190;24932;-65
2023/02/25 03:10:38;;;;;;;;;11.33;9.00;;;;;;;;119903;1190;24684;-65
2023/02/25 03:13:06;;;;;;;;;9.00;8.00;;;;;;;;120124;1182;25131;-65
2023/02/25 03:15:38;;;;;;;;;11.00;10.00;;;;;;;;119935;1190;25037;-65
2023/02/25 03:18:15;;;;;;;;;11.33;9.67;;;;;;;;119948;1190;25165;-65
2023/02/25 03:20:48;;;;;;;;;13.00;10.25;;;;;;;;119951;1190;25265;-65
2023/02/25 03:23:21;;;;;;;;;10.00;9.00;;;;;;;;119937;1183;25273;-65
2023/02/25 03:25:56;;;;;;;;;14.75;13.00;;;;;;;;119958;1190;25655;-65
2023/02/25 03:28:33;;;;;;;;;10.75;9.00;;;;;;;;119945;1189;24822;-65
2023/02/25 03:31:09;;;;;;;;;12.67;9.67;;;;;;;;120093;1190;25185;-65
2023/02/25 03:33:49;;;;;;;;;9.50;9.50;;;;;;;;119960;1187;25249;-65
2023/02/25 03:36:26;;;;;;;;;10.25;10.00;;;;;;;;119966;1189;25265;-65
2023/02/25 03:39:09;;;;;;;;;13.67;11.00;;;;;;;;120127;1190;24990;-65
2023/02/25 03:41:40;;;;;;;;;9.75;8.00;;;;;;;;119917;1190;25513;-65
2023/02/25 03:44:13;;;;;;;;;11.00;8.50;;;;;;;;119949;1190;25336;-65
2023/02/25 03:46:43;;;;;;;;;10.67;8.67;;;;;;;;119989;1190;24964;-66
2023/02/25 03:49:17;;;;;;;;;10.50;10.00;;;;;;;;119929;1190;25086;-65
2023/02/25 03:51:48;;;;;;;;;13.50;9.50;;;;;;;;119951;1190;25098;-65
2023/02/25 03:54:16;;;;;;;;;11.25;8.50;;;;;;;;119940;1190;25576;-65
2023/02/25 03:56:47;;;;;;;;;11.25;9.75;;;;;;;;120119;1189;24902;-66
2023/02/25 03:59:16;;;;;;;;;11.75;10.50;;;;;;;;119922;1182;25311;-66
2023/02/25 04:01:47;;;;;;;;;10.00;8.25;;;;;;;;120111;1190;25170;-66
2023/02/25 04:04:15;;;;;;;;;9.00;7.00;;;;;;;;119959;1190;24713;-66
2023/02/25 04:06:44;;;;;;;;;12.00;10.67;;;;;;;;120118;1190;25295;-66
2023/02/25 04:09:12;;;;;;;;;9.50;8.75;;;;;;;;120110;1190;25388;-66
2023/02/25 04:11:40;;;;;;;;;10.00;8.00;;;;;;;;120118;1182;24828;-66
2023/02/25 04:14:08;;;;;;;;;11.25;9.75;;;;;;;;120123;1190;25467;-66
2023/02/25 04:16:37;;;;;;;;;11.00;10.00;;;;;;;;120096;1190;25133;-65
2023/02/25 04:19:05;;;;;;;;;13.33;10.67;;;;;;;;120120;1189;25539;-66
2023/02/25 04:21:36;;;;;;;;;9.00;9.00;;;;;;;;120105;1190;25023;-66
2023/02/25 04:24:05;;;;;;;;;9.50;9.00;;;;;;;;120106;1190;25159;-66
2023/02/25 04:26:34;;;;;;;;;13.00;10.67;;;;;;;;119923;1190;26016;-66
2023/02/25 04:29:02;;;;;;;;;11.00;9.00;;;;;;;;119905;1182;24966;-66
2023/02/25 04:31:31;;;;;;;;;12.33;10.00;;;;;;;;119940;1190;25611;-66
2023/02/25 04:33:59;;;;;;;;;9.25;8.00;;;;;;;;119919;1182;25514;-67
2023/02/25 04:36:29;;;;;;;;;13.50;11.00;;;;;;;;119906;1190;25523;-67
2023/02/25 04:39:00;;;;;;;;;10.67;8.00;;;;;;;;119922;1190;25577;-67
2023/02/25 04:41:31;;;;;;;;;12.50;8.75;;;;;;;;119923;1183;24910;-67
2023/02/25 04:44:02;;;;;;;;;11.33;10.00;;;;;;;;119931;1190;25423;-67
2023/02/25 04:46:32;;;;;;;;;16.67;11.33;;;;;;;;119917;1190;25321;-68
2023/02/25 04:49:01;;;;;;;;;13.33;10.67;;;;;;;;119900;1187;26184;-66
2023/02/25 04:51:29;;;;;;;;;7.67;7.33;;;;;;;;119924;1190;24989;-66
2023/02/25 04:53:57;;;;;;;;;12.25;11.00;;;;;;;;119883;1190;24845;-67
2023/02/25 04:56:26;;;;;;;;;11.75;10.25;;;;;;;;119948;1190;25047;-66
2023/02/25 04:58:55;;;;;;;;;9.67;8.33;;;;;;;;119904;1190;25077;-66
2023/02/25 05:01:24;;;;;;;;;10.25;10.25;;;;;;;;119917;1190;24802;-66
2023/02/25 05:03:55;;;;;;;;;11.75;10.25;;;;;;;;119914;1190;24850;-66
2023/02/25 05:06:24;;;;;;;;;12.33;9.67;;;;;;;;119931;1190;25257;-65
2023/02/25 05:08:54;;;;;;;;;10.75;8.75;;;;;;;;119929;1190;25690;-66
2023/02/25 05:11:24;;;;;;;;;12.33;10.33;;;;;;;;119906;1190;25270;-66
2023/02/25 05:13:55;;;;;;;;;13.25;11.50;;;;;;;;119904;1182;25688;-66
2023/02/25 05:16:24;;;;;;;;;12.67;8.33;;;;;;;;119915;1190;26478;-66
2023/02/25 05:18:53;;;;;;;;;12.00;11.50;;;;;;;;119913;1183;25556;-66
2023/02/25 05:21:24;;;;;;;;;12.25;11.75;;;;;;;;119933;1182;25802;-65
2023/02/25 05:23:53;;;;;;;;;7.00;7.00;;;;;;;;119911;1187;25857;-65
2023/02/25 05:26:23;;;;;;;;;9.33;9.33;;;;;;;;119924;1190;25609;-65
2023/02/25 05:28:53;;;;;;;;;11.00;9.25;;;;;;;;119901;1182;25257;-65
2023/02/25 05:31:23;;;;;;;;;10.50;9.00;;;;;;;;119992;1183;24759;-64
2023/02/25 05:33:52;;;;;;;;;15.25;13.50;;;;;;;;119908;1190;25128;-65
2023/02/25 05:36:21;;;;;;;;;9.67;9.67;;;;;;;;119895;1190;25607;-64
2023/02/25 05:38:57;;;;;;;;;11.75;9.00;;;;;;;;119927;1190;24872;-64
2023/02/25 05:41:26;;;;;;;;;6.33;5.33;;;;;;;;119918;1190;25243;-64
2023/02/25 05:43:56;;;;;;;;;13.67;12.33;;;;;;;;119931;1190;25600;-65
2023/02/25 05:46:25;;;;;;;;;6.00;2.75;;;;;;;;119933;1182;24819;-65
2023/02/25 05:48:54;;;;;;;;;12.00;10.00;;;;;;;;119892;1190;24815;-63
2023/02/25 05:51:22;;;;;;;;;9.00;8.50;;;;;;;;119910;1182;25032;-62
2023/02/25 05:53:51;;;;;;;;;14.25;10.50;;;;;;;;119917;1190;24915;-63
2023/02/25 05:56:23;;;;;;;;;13.00;12.00;;;;;;;;119905;1183;25304;-63
2023/02/25 05:58:54;;;;;;;;;13.00;8.75;;;;;;;;119896;1187;25070;-63
2023/02/25 06:01:26;;;;;;;;;13.25;12.75;;;;;;;;119893;1190;24893;-64
2023/02/25 06:03:57;;;;;;;;;12.75;10.50;;;;;;;;119916;1190;24847;-63
2023/02/25 06:06:28;;;;;;;;;14.50;10.50;;;;;;;;119940;1181;24776;-64
2023/02/25 06:08:57;;;;;;;;;14.25;9.00;;;;;;;;119910;1191;25640;-64
2023/02/25 06:11:27;;;;;;;;;12.50;10.00;;;;;;;;119700;1191;26167;-63
2023/02/25 06:13:57;;;;;;;;;7.00;7.00;;;;;;;;119899;1191;24817;-63
2023/02/25 06:16:30;;;;;;;;;13.00;10.00;;;;;;;;119886;1182;25104;-63
2023/02/25 06:19:01;;;;;;;;;12.50;11.25;;;;;;;;119898;1190;24892;-63
2023/02/25 06:21:30;;;;;;;;;9.25;7.50;;;;;;;;119926;1190;25381;-62
2023/02/25 06:23:59;;;;;;;;;6.25;6.25;;;;;;;;119911;1190;25062;-62
2023/02/25 06:26:28;;;;;;;;;10.00;8.75;;;;;;;;119923;1190;25258;-62
2023/02/25 06:28:56;;;;;;;;;8.00;8.00;;;;;;;;119988;1179;25189;-63
2023/02/25 06:31:25;;;;;;;;;7.00;7.00;;;;;;;;119906;1190;25082;-62
2023/02/25 06:33:53;;;;;;;;;10.33;9.67;;;;;;;;119920;1191;25295;-61
2023/02/25 06:36:22;;;;;;;;;8.25;8.25;;;;;;;;119924;1182;24838;-62
2023/02/25 06:38:51;;;;;;;;;14.00;12.00;;;;;;;;119730;1191;25239;-61
2023/02/25 06:41:20;;;;;;;;;12.00;8.33;;;;;;;;119921;1190;25304;-61
2023/02/25 06:43:52;;;;;;;;;15.00;11.00;;;;;;;;119776;1189;24786;-61
2023/02/25 06:46:23;;;;;;;;;15.25;11.25;;;;;;;;119886;1190;25085;-61
2023/02/25 06:48:52;;;;;;;;;16.00;14.50;;;;;;;;119884;1190;24897;-60
2023/02/25 06:51:21;;;;;;;;;16.00;12.67;;;;;;;;119889;1183;24859;-60
2023/02/25 06:53:51;;;;;;;;;13.50;12.00;;;;;;;;119881;1190;25409;-60
2023/02/25 06:56:20;;;;;;;;;14.00;11.75;;;;;;;;119942;1188;24834;-60
2023/02/25 06:58:51;;;;;;;;;14.00;12.00;;;;;;;;119903;1182;25346;-59
2023/02/25 07:01:19;;;;;;;;;16.33;11.67;;;;;;;;119915;1191;25635;-59
2023/02/25 07:03:48;;;;;;;;;16.00;11.33;;;;;;;;119905;1190;25176;-60
2023/02/25 07:06:17;;;;;;;;;13.00;12.50;;;;;;;;119931;1189;25152;-60
2023/02/25 07:08:45;;;;;;;;;19.75;14.00;;;;;;;;119704;1191;24876;-60
2023/02/25 07:11:28;;;;;;;;;13.75;9.50;;;;;;;;119889;1186;26416;-60
2023/02/25 07:13:56;;;;;;;;;13.33;12.33;;;;;;;;119906;1177;25551;-62
2023/02/25 07:16:25;;;;;;;;;21.00;14.00;;;;;;;;119909;1183;26353;-60
2023/02/25 07:18:53;;;;;;;;;8.33;8.33;;;;;;;;119873;1182;25396;-60
2023/02/25 07:21:22;;;;;;;;;13.50;12.00;;;;;;;;119933;1182;25405;-60
2023/02/25 07:23:50;;;;;;;;;12.75;10.00;;;;;;;;119868;1182;25221;-61
2023/02/25 07:26:19;;;;;;;;;12.33;9.00;;;;;;;;119902;1182;25067;-61
2023/02/25 07:28:47;;;;;;;;;13.00;10.75;;;;;;;;120014;1182;25568;-60
2023/02/25 07:31:17;;;;;;;;;15.00;11.00;;;;;;;;120027;1186;25055;-60
2023/02/25 07:33:47;;;;;;;;;11.50;9.00;;;;;;;;119916;1182;25283;-59
2023/02/25 07:36:16;;;;;;;;;14.50;10.50;;;;;;;;119856;1190;25504;-61
2023/02/25 07:38:45;;;;;;;;;11.00;11.00;;;;;;;;119904;1190;24928;-60
2023/02/25 07:41:16;;;;;;;;;13.00;11.00;;;;;;;;119924;1187;25424;-60
2023/02/25 07:43:45;;;;;;;;;11.50;10.50;;;;;;;;119880;1190;24854;-60
2023/02/25 07:46:13;;;;;;;;;11.50;8.75;;;;;;;;119901;1187;25306;-66
2023/02/25 07:48:41;;;;;;;;;13.00;11.33;;;;;;;;119989;1190;25555;-63
2023/02/25 07:51:14;;;;;;;;;16.00;11.75;;;;;;;;119900;1190;25087;-60
2023/02/25 07:53:42;;;;;;;;;16.00;14.00;;;;;;;;119912;1190;25624;-61
2023/02/25 07:56:11;;;;;;;;;11.00;10.00;;;;;;;;119722;1187;24889;-60
2023/02/25 07:58:40;;;;;;;;;12.67;11.67;;;;;;;;119910;1177;25644;-61
2023/02/25 08:01:22;;;;;;;;;13.33;12.67;;;;;;;;119883;1190;24973;-62
2023/02/25 08:03:56;;;;;;;;;12.50;9.25;;;;;;;;119905;1182;24978;-62
2023/02/25 08:06:25;;;;;;;;;13.00;11.00;;;;;;;;120021;1190;25101;-61
2023/02/25 08:08:54;;;;;;;;;17.33;12.67;;;;;;;;119905;1187;25545;-61
2023/02/25 08:11:23;;;;;;;;;10.25;10.00;;;;;;;;119994;1190;25021;-60
2023/02/25 08:13:52;;;;;;;;;17.00;14.00;;;;;;;;119899;1190;25513;-60
2023/02/25 08:16:21;;;;;;;;;12.75;11.00;;;;;;;;119949;1181;25410;-60
2023/02/25 08:18:51;;;;;;;;;14.25;10.75;;;;;;;;119848;1184;25305;-60
2023/02/25 08:21:22;;;;;;;;;12.00;10.33;;;;;;;;119954;1183;26204;-61
2023/02/25 08:23:52;;;;;;;;;14.25;12.50;;;;;;;;119905;1179;25471;-61
2023/02/25 08:26:23;;;;;;;;;14.00;10.75;;;;;;;;119931;1190;24853;-63
2023/02/25 08:28:51;;;;;;;;;11.00;9.25;;;;;;;;120017;1186;25515;-61
2023/02/25 08:31:20;;;;;;;;;7.75;7.00;;;;;;;;119922;1190;24783;-61
2023/02/25 08:33:51;;;;;;;;;11.75;9.50;;;;;;;;120128;1189;25103;-61
2023/02/25 08:36:22;;;;;;;;;13.00;11.25;;;;;;;;119887;1190;25168;-62
2023/02/25 08:38:51;;;;;;;;;12.50;9.50;;;;;;;;119931;1190;25386;-62
2023/02/25 08:41:20;;;;;;;;;9.00;8.00;;;;;;;;119899;1187;24971;-62
2023/02/25 08:43:53;;;;;;;;;19.67;12.33;;;;;;;;119870;1190;25184;-62
2023/02/25 08:46:23;;;;;;;;;14.00;13.00;;;;;;;;119869;1190;25944;-60
2023/02/25 08:48:53;;;;;;;;;14.00;14.00;;;;;;;;119931;1190;24903;-61
2023/02/25 08:51:22;;;;;;;;;17.50;13.50;;;;;;;;119916;1190;24664;-60
2023/02/25 08:53:51;;;;;;;;;14.75;11.50;;;;;;;;119815;1183;24925;-61
2023/02/25 08:56:19;;;;;;;;;12.00;12.00;;;;;;;;119889;1190;25323;-61
2023/02/25 08:58:48;;;;;;;;;13.50;11.25;;;;;;;;120118;1182;25029;-60
2023/02/25 09:01:17;;;;;;;;;20.25;11.75;;;;;;;;120110;1190;25294;-60
2023/02/25 09:03:50;;;;;;;;;12.00;12.00;;;;;;;;119823;1179;25519;-60
2023/02/25 09:06:22;;;;;;;;;17.00;13.00;;;;;;;;119944;1182;25454;-59
2023/02/25 09:08:51;;;;;;;;;12.67;12.00;;;;;;;;119934;1190;25441;-60
2023/02/25 09:11:20;;;;;;;;;16.00;10.50;;;;;;;;119956;1186;25545;-60
2023/02/25 09:13:49;;;;;;;;;13.00;9.75;;;;;;;;119880;1190;26186;-65
2023/02/25 09:16:18;;;;;;;;;15.50;11.75;;;;;;;;119908;1190;24711;-61
2023/02/25 09:18:49;;;;;;;;;10.50;10.00;;;;;;;;119907;1182;25706;-61
2023/02/25 09:21:18;;;;;;;;;11.50;10.75;;;;;;;;120025;1182;29062;-61
2023/02/25 09:23:46;;;;;;;;;18.75;13.00;;;;;;;;119909;1183;24951;-60
2023/02/25 09:26:15;;;;;;;;;13.67;10.33;;;;;;;;119924;1183;24935;-60
2023/02/25 09:28:43;;;;;;;;;14.50;12.50;;;;;;;;120059;1182;25191;-59
2023/02/25 09:31:11;;;;;;;;;17.00;13.25;;;;;;;;119927;1190;25079;-59
2023/02/25 09:33:41;;;;;;;;;6.00;5.00;;;;;;;;120025;1190;25520;-60
2023/02/25 09:36:15;;;;;;;;;10.00;10.00;;;;;;;;119966;1190;25652;-60
2023/02/25 09:38:44;;;;;;;;;13.75;10.00;;;;;;;;119923;1190;25053;-60
2023/02/25 09:41:21;;;;;;;;;12.33;11.33;;;;;;;;119924;1190;24720;-61
2023/02/25 09:44:01;;;;;;;;;15.75;11.50;;;;;;;;120084;1176;25262;-60
2023/02/25 09:46:30;;;;;;;;;10.50;9.00;;;;;;;;119937;1190;25919;-61
2023/02/25 09:49:08;;;;;;;;;16.75;12.75;;;;;;;;119970;1190;25182;-60
2023/02/25 09:51:39;;;;;;;;;10.50;9.00;;;;;;;;119967;1183;25426;-60
2023/02/25 09:54:17;;;;;;;;;13.50;9.00;;;;;;;;119962;1186;25226;-60
2023/02/25 09:56:45;;;;;;;;;14.33;13.00;;;;;;;;120117;1181;24829;-61
2023/02/25 09:59:16;;;;;;;;;13.75;10.00;;;;;;;;120006;1186;25306;-59
2023/02/25 10:01:50;;;;;;;;;12.50;9.50;;;;;;;;119887;1191;24931;-61
2023/02/25 10:04:55;;;;;;;;;11.67;10.67;;;;;;;;119901;1182;25447;-61
2023/02/25 10:07:30;;;;;;;;;14.50;10.50;;;;;;;;120044;1188;25455;-60
2023/02/25 10:10:08;;;;;;;;;15.00;12.00;;;;;;;;119930;1186;24692;-60
2023/02/25 10:13:05;;;;;;;;;11.50;9.00;;;;;;;;119970;1189;25222;-60
2023/02/25 10:15:42;;;;;;;;;16.00;13.75;;;;;;;;119668;1187;25736;-60
2023/02/25 10:18:35;;;;;;;;;13.00;10.00;;;;;;;;120021;1182;25404;-60
2023/02/25 10:21:03;;;;;;;;;10.00;10.00;;;;;;;;119954;1182;24739;-60
2023/02/25 10:23:46;;;;;;;;;14.00;12.50;;;;;;;;120079;1183;25465;-60
2023/02/25 10:26:19;;;;;;;;;13.25;12.50;;;;;;;;120093;1190;25615;-60
2023/02/25 10:28:54;;;;;;;;;13.00;11.00;;;;;;;;119896;1190;24751;-60
2023/02/25 10:31:22;;;;;;;;;12.75;11.25;;;;;;;;119875;1187;25306;-60
2023/02/25 10:33:53;;;;;;;;;19.00;13.50;;;;;;;;119902;1190;25693;-60
2023/02/25 10:36:29;;;;;;;;;12.00;10.25;;;;;;;;119917;1184;25526;-60
2023/02/25 10:38:57;;;;;;;;;14.00;9.33;;;;;;;;119899;1190;25612;-60
2023/02/25 10:41:26;;;;;;;;;15.00;13.00;;;;;;;;119904;1190;25400;-61
2023/02/25 10:43:55;;;;;;;;;16.67;12.67;;;;;;;;119907;1190;25587;-61
2023/02/25 10:46:58;;;;;;;;;13.00;11.25;;;;;;;;119769;1183;24763;-61
2023/02/25 10:49:29;;;;;;;;;13.75;11.00;;;;;;;;119949;1181;24745;-61
2023/02/25 10:52:01;;;;;;;;;11.50;10.75;;;;;;;;119931;1182;24892;-60
2023/02/25 10:54:34;;;;;;;;;11.00;9.33;;;;;;;;119919;1182;24962;-61
2023/02/25 10:57:13;;;;;;;;;14.75;8.25;;;;;;;;119916;1190;25569;-60
2023/02/25 10:59:43;;;;;;;;;17.25;9.25;;;;;;;;120025;1188;24963;-60
2023/02/25 11:02:22;;;;;;;;;12.00;10.00;;;;;;;;120064;1181;25525;-60
2023/02/25 11:04:51;;;;;;;;;11.00;11.00;;;;;;;;119891;1190;24831;-61
2023/02/25 11:07:38;;;;;;;;;14.00;9.50;;;;;;;;119837;1190;24986;-61
2023/02/25 11:10:10;;;;;;;;;13.00;11.50;;;;;;;;120072;1186;25473;-60
2023/02/25 11:12:43;;;;;;;;;12.00;10.00;;;;;;;;119930;1182;25395;-60
2023/02/25 11:15:26;;;;;;;;;15.33;13.33;;;;;;;;119952;1190;24887;-60
2023/02/25 11:18:27;;;;;;;;;13.50;13.00;;;;;;;;120130;1186;24964;-61
2023/02/25 11:20:58;;;;;;;;;12.00;11.00;;;;;;;;119914;1190;25642;-60
2023/02/25 11:23:45;;;;;;;;;11.50;10.25;;;;;;;;120108;1189;25116;-61
2023/02/25 11:26:29;;;;;;;;;6.50;4.00;;;;;;;;119921;1183;25060;-61
2023/02/25 11:29:05;;;;;;;;;10.25;9.25;;;;;;;;119898;1187;25136;-59
2023/02/25 11:31:36;;;;;;;;;12.00;10.00;;;;;;;;119931;1190;28666;-60
2023/02/25 11:34:31;;;;;;;;;14.00;12.50;;;;;;;;119906;1190;25216;-59
2023/02/25 11:37:31;;;;;;;;;11.25;9.00;;;;;;;;120077;1190;25536;-60
2023/02/25 11:40:01;;;;;;;;;12.00;10.00;;;;;;;;119859;1190;24836;-60
2023/02/25 11:42:30;;;;;;;;;11.50;11.00;;;;;;;;119898;1190;24994;-60
2023/02/25 11:45:00;;;;;;;;;9.33;9.33;;;;;;;;119904;1182;25088;-59
2023/02/25 11:47:29;;;;;;;;;19.00;14.00;;;;;;;;119917;1190;24718;-60
2023/02/25 11:50:04;;;;;;;;;13.50;10.25;;;;;;;;119894;1187;25138;-59
2023/02/25 11:53:03;;;;;;;;;11.50;9.00;;;;;;;;119926;1190;25584;-59
2023/02/25 11:55:53;;;;;;;;;8.75;8.75;;;;;;;;119937;1190;25187;-60
2023/02/25 11:58:58;;;;;;;;;9.50;7.25;;;;;;;;119918;1183;25114;-61
2023/02/25 12:01:33;;;;;;;;;8.00;5.00;;;;;;;;119918;1190;25094;-59
2023/02/25 12:04:16;;;;;;;;;12.33;10.67;;;;;;;;120071;1182;25267;-59
2023/02/25 12:07:46;;;;;;;;;12.75;10.00;;;;;;;;119935;1190;25456;-60
2023/02/25 12:10:43;;;;;;;;;14.00;12.00;;;;;;;;119383;1194;24879;-60
2023/02/25 12:13:51;;;;;;;;;15.00;11.00;;;;;;;;119952;1187;25575;-60
2023/02/25 12:16:31;;;;;;;;;15.33;13.67;;;;;;;;119870;1190;25884;-60
2023/02/25 12:19:47;;;;;;;;;9.67;7.00;;;;;;;;120024;1182;25680;-60
2023/02/25 12:22:51;;;;;;;;;11.33;10.00;;;;;;;;119862;1190;25722;-60
2023/02/25 12:25:53;;;;;;;;;15.50;13.25;;;;;;;;119889;1190;25502;-60
2023/02/25 12:29:09;;;;;;;;;13.50;11.00;;;;;;;;120080;1190;25517;-60
2023/02/25 12:32:02;;;;;;;;;15.00;11.00;;;;;;;;120133;1182;25331;-60
2023/02/25 12:34:55;;;;;;;;;14.25;9.25;;;;;;;;120102;1190;25969;-60
2023/02/25 12:38:00;;;;;;;;;6.67;6.33;;;;;;;;119924;1190;24730;-61
2023/02/25 12:40:41;;;;;;;;;13.50;12.25;;;;;;;;119962;1183;25059;-60
2023/02/25 12:43:20;;;;;;;;;12.00;12.00;;;;;;;;119921;1190;25083;-68
2023/02/25 12:45:55;;;;;;;;;16.67;12.00;;;;;;;;119890;1190;25165;-77
2023/02/25 12:49:01;;;;;;;;;13.75;12.00;;;;;;;;119918;1189;25164;-73
2023/02/25 12:52:15;;;;;;;;;12.67;12.67;;;;;;;;119951;1190;25541;-67
2023/02/25 12:55:18;;;;;;;;;15.67;13.00;;;;;;;;120030;1190;25353;-66
2023/02/25 12:58:32;;;;;;;;;15.25;11.50;;;;;;;;119995;1182;25663;-69
2023/02/25 13:01:37;;;;;;;;;9.67;8.00;;;;;;;;119856;1183;24960;-69
2023/02/25 13:05:02;;;;;;;;;14.00;11.67;;;;;;;;119419;1193;24915;-69
2023/02/25 13:07:35;;;;;;;;;10.50;10.50;;;;;;;;119864;1192;25069;-70
2023/02/25 13:10:28;;;;;;;;;12.75;9.75;;;;;;;;119828;1192;25336;-69
2023/02/25 13:13:05;;;;;;;;;14.67;12.00;;;;;;;;120086;1189;24824;-70
2023/02/25 13:15:45;;;;;;;;;9.50;8.00;;;;;;;;120106;1190;25602;-69
2023/02/25 13:18:32;;;;;;;;;14.00;10.00;;;;;;;;120109;1190;24934;-69
2023/02/25 13:21:13;;;;;;;;;12.00;10.50;;;;;;;;120102;1189;25533;-69
2023/02/25 13:24:18;;;;;;;;;13.25;12.25;;;;;;;;119912;1187;25216;-69
2023/02/25 13:27:24;;;;;;;;;13.25;11.75;;;;;;;;119918;1182;25420;-69
2023/02/25 13:30:13;;;;;;;;;11.25;9.00;;;;;;;;120026;1182;25408;-69
2023/02/25 13:33:19;;;;;;;;;7.75;6.00;;;;;;;;119927;1190;25755;-69
2023/02/25 13:35:48;;;;;;;;;15.00;11.00;;;;;;;;119851;1186;25235;-69
2023/02/25 13:38:32;;;;;;;;;10.00;9.67;;;;;;;;120052;1185;25031;-70
2023/02/25 13:41:06;;;;;;;;;15.00;12.00;;;;;;;;119981;1182;25313;-68
2023/02/25 13:43:53;;;;;;;;;16.50;11.50;;;;;;;;119948;1190;25113;-68
2023/02/25 13:46:40;;;;;;;;;8.00;7.25;;;;;;;;120062;1185;25619;-70
2023/02/25 13:49:30;;;;;;;;;15.33;10.33;;;;;;;;120064;1186;24980;-68
2023/02/25 13:52:20;;;;;;;;;13.25;11.00;;;;;;;;120164;1186;25424;-66
2023/02/25 13:55:04;;;;;;;;;10.75;9.25;;;;;;;;119931;1190;25531;-68
2023/02/25 13:57:43;;;;;;;;;16.50;11.50;;;;;;;;119947;1187;25592;-67
2023/02/25 14:00:34;;;;;;;;;11.33;10.00;;;;;;;;119920;1190;25598;-67
2023/02/25 14:03:49;;;;;;;;;8.33;8.33;;;;;;;;119956;1186;24850;-66
2023/02/25 14:06:34;;;;;;;;;12.50;10.00;;;;;;;;119750;1190;25090;-67
2023/02/25 14:09:18;;;;;;;;;8.25;8.25;;;;;;;;119938;1183;25178;-67
2023/02/25 14:12:18;;;;;;;;;12.00;8.00;;;;;;;;120068;1182;25270;-67
2023/02/25 14:15:15;;;;;;;;;8.00;8.00;;;;;;;;119910;1183;25551;-68
2023/02/25 14:17:57;;;;;;;;;13.33;11.33;;;;;;;;120038;1182;25441;-67
2023/02/25 14:20:30;;;;;;;;;11.00;9.33;;;;;;;;119909;1182;25018;-67
2023/02/25 14:23:34;;;;;;;;;11.67;9.67;;;;;;;;119914;1190;24881;-67
2023/02/25 14:26:14;;;;;;;;;10.00;8.25;;;;;;;;119998;1185;25228;-66
2023/02/25 14:28:46;;;;;;;;;7.75;7.25;;;;;;;;120019;1182;25410;-67
2023/02/25 14:31:17;;;;;;;;;10.00;9.00;;;;;;;;119925;1190;24855;-67
2023/02/25 14:34:20;;;;;;;;;14.00;7.75;;;;;;;;120002;1190;25608;-67
2023/02/25 14:37:23;;;;;;;;;10.50;9.00;;;;;;;;120122;1185;25155;-67
2023/02/25 14:40:32;;;;;;;;;8.00;7.25;;;;;;;;119766;1185;25397;-68
2023/02/25 14:43:30;;;;;;;;;12.25;10.75;;;;;;;;119716;1185;24949;-67
2023/02/25 14:46:01;;;;;;;;;9.33;7.67;;;;;;;;119928;1186;25748;-68
2023/02/25 14:48:48;;;;;;;;;10.00;10.00;;;;;;;;120085;1186;25611;-67
2023/02/25 14:51:52;;;;;;;;;10.50;7.50;;;;;;;;120044;1186;26214;-67
2023/02/25 14:54:41;;;;;;;;;13.33;10.33;;;;;;;;120012;1186;25608;-67
2023/02/25 14:57:15;;;;;;;;;7.00;7.00;;;;;;;;120030;1190;25518;-67
2023/02/25 15:00:08;;;;;;;;;14.00;8.50;;;;;;;;120029;1186;26448;-67
2023/02/25 15:02:53;;;;;;;;;10.33;7.67;;;;;;;;119988;1182;24968;-68